Time;durP1;ratioP1;P1;durP2;ratioP2;P2;SDS_P1;SDS_P2;PMS_P1;PMS_P2;Temp;Humidity;BMP_temperature;BMP_pressure;BME280_temperature;BME280_humidity;BME280_pressure;Samples;Min_cycle;Max_cycle;Signal;HPM_P1;HPM_P2
2021/03/27 00:00:57;;;;;;;6.32;4.05;;;30.10;91.90;;;;;;5027429;28;20238;-55
2021/03/27 00:03:34;;;;;;;5.60;3.85;;;30.20;92.00;;;;;;5026235;28;20222;-51
2021/03/27 00:06:06;;;;;;;6.50;4.07;;;30.20;92.10;;;;;;5027336;28;20207;-50
2021/03/27 00:08:45;;;;;;;7.25;4.60;;;30.20;92.10;;;;;;5027539;28;20210;-49
2021/03/27 00:11:18;;;;;;;7.28;4.22;;;30.30;92.30;;;;;;4968348;28;20268;-49
2021/03/27 00:13:58;;;;;;;6.28;4.10;;;30.30;92.20;;;;;;4968378;28;20283;-49
2021/03/27 00:16:30;;;;;;;8.25;4.50;;;30.30;92.30;;;;;;4968561;28;20248;-50
2021/03/27 00:19:06;;;;;;;5.07;3.58;;;30.40;92.40;;;;;;4989709;28;20210;-50
2021/03/27 00:21:39;;;;;;;6.97;4.10;;;30.50;92.50;;;;;;5013443;28;20289;-50
2021/03/27 00:24:13;;;;;;;5.22;3.67;;;30.50;92.50;;;;;;5024443;28;20638;-49
2021/03/27 00:26:44;;;;;;;5.15;4.10;;;30.50;92.50;;;;;;5020375;28;20210;-54
2021/03/27 00:29:17;;;;;;;8.48;3.75;;;30.60;92.40;;;;;;5022574;28;20230;-49
2021/03/27 00:31:50;;;;;;;7.00;4.25;;;30.70;92.40;;;;;;5018509;28;20223;-49
2021/03/27 00:34:24;;;;;;;8.25;4.03;;;30.80;92.40;;;;;;5008760;28;20237;-50
2021/03/27 00:36:56;;;;;;;6.88;3.90;;;30.80;92.40;;;;;;4965682;28;20205;-49
2021/03/27 00:39:27;;;;;;;5.50;3.90;;;30.90;92.40;;;;;;4965374;28;20276;-51
2021/03/27 00:41:58;;;;;;;7.40;4.53;;;30.90;92.30;;;;;;4950400;28;20204;-49
2021/03/27 00:44:30;;;;;;;7.43;4.15;;;31.00;92.20;;;;;;4954566;28;20232;-50
2021/03/27 00:47:00;;;;;;;8.63;4.68;;;31.10;92.10;;;;;;4944811;29;20217;-51
2021/03/27 00:49:36;;;;;;;5.95;3.95;;;31.10;92.10;;;;;;4936771;29;20730;-51
2021/03/27 00:52:10;;;;;;;9.02;5.00;;;31.20;91.90;;;;;;4938917;29;20224;-53
2021/03/27 00:54:42;;;;;;;8.90;4.47;;;31.30;91.60;;;;;;4940207;29;21036;-49
2021/03/27 00:57:15;;;;;;;6.63;4.38;;;31.30;91.50;;;;;;4935909;29;20238;-50
2021/03/27 00:59:57;;;;;;;7.70;4.07;;;31.40;91.50;;;;;;4931779;29;20214;-50
2021/03/27 01:02:28;;;;;;;6.22;4.25;;;31.40;91.40;;;;;;4923842;29;20382;-49
2021/03/27 01:05:01;;;;;;;6.38;4.13;;;31.50;91.40;;;;;;4929222;29;20218;-51
2021/03/27 01:07:31;;;;;;;6.97;4.32;;;31.60;91.30;;;;;;4929483;29;20810;-53
2021/03/27 01:10:06;;;;;;;8.93;4.97;;;31.60;91.20;;;;;;4929605;29;20702;-48
2021/03/27 01:12:37;;;;;;;9.43;5.18;;;31.70;91.00;;;;;;4936896;29;20284;-53
2021/03/27 01:15:14;;;;;;;9.00;5.47;;;31.70;90.90;;;;;;4875650;29;20252;-51
2021/03/27 01:17:45;;;;;;;7.60;5.00;;;31.80;90.70;;;;;;4911040;29;20566;-52
2021/03/27 01:20:19;;;;;;;9.30;5.50;;;31.80;90.20;;;;;;4900837;29;20211;-50
2021/03/27 01:22:53;;;;;;;8.85;5.57;;;31.80;90.00;;;;;;4907051;29;20227;-52
2021/03/27 01:25:24;;;;;;;8.30;4.65;;;31.80;90.00;;;;;;4898468;29;20215;-49
2021/03/27 01:27:55;;;;;;;12.90;5.63;;;31.90;90.30;;;;;;4897522;29;20223;-49
2021/03/27 01:30:33;;;;;;;9.00;5.10;;;31.90;89.90;;;;;;4892047;29;20211;-51
2021/03/27 01:33:08;;;;;;;6.28;4.20;;;32.00;89.50;;;;;;4914972;29;20209;-50
2021/03/27 01:35:42;;;;;;;8.20;5.20;;;32.10;89.60;;;;;;4932923;29;20213;-49
2021/03/27 01:38:13;;;;;;;7.82;4.97;;;32.10;88.50;;;;;;4938268;29;20312;-53
2021/03/27 01:40:53;;;;;;;7.90;4.90;;;32.10;89.10;;;;;;4982164;28;20216;-48
2021/03/27 01:43:28;;;;;;;7.10;4.53;;;32.20;88.50;;;;;;4928060;29;20265;-50
2021/03/27 01:46:34;;;;;;;11.40;5.45;;;32.20;87.60;;;;;;4952481;28;20212;-50
2021/03/27 01:49:25;;;;;;;7.00;4.30;;;32.20;86.40;;;;;;4986089;28;20226;-53
2021/03/27 01:52:16;;;;;;;6.80;4.40;;;32.30;87.40;;;;;;5016240;28;20265;-49
2021/03/27 01:54:52;;;;;;;7.78;4.60;;;32.40;86.90;;;;;;4960797;28;20299;-48
2021/03/27 01:57:30;;;;;;;6.97;4.28;;;32.40;86.80;;;;;;4964083;28;20208;-49
2021/03/27 02:00:04;;;;;;;7.72;4.75;;;32.40;86.70;;;;;;4926799;29;20232;-52
2021/03/27 02:02:36;;;;;;;7.43;4.60;;;32.50;85.70;;;;;;4908441;29;20911;-52
2021/03/27 02:05:08;;;;;;;7.03;4.40;;;32.50;85.30;;;;;;4904547;29;20759;-48
2021/03/27 02:07:45;;;;;;;5.30;3.90;;;32.60;85.50;;;;;;4909455;29;20207;-49
2021/03/27 02:10:20;;;;;;;9.68;4.50;;;32.70;85.30;;;;;;4889050;29;21075;-50
2021/03/27 02:12:58;;;;;;;8.70;4.40;;;32.70;84.80;;;;;;4889243;29;20211;-52
2021/03/27 02:15:57;;;;;;;5.93;4.10;;;32.80;84.10;;;;;;4925635;29;20222;-48
2021/03/27 02:18:32;;;;;;;7.68;4.15;;;32.80;84.00;;;;;;4888079;29;20231;-51
2021/03/27 02:21:28;;;;;;;7.13;4.53;;;32.80;84.00;;;;;;4886000;29;20298;-49
2021/03/27 02:24:26;;;;;;;5.68;4.03;;;32.90;82.10;;;;;;4871933;29;20613;-53
2021/03/27 02:27:03;;;;;;;8.07;4.25;;;32.90;83.00;;;;;;4894203;29;20226;-54
2021/03/27 02:30:04;;;;;;;11.00;4.85;;;33.00;83.00;;;;;;4870566;29;20328;-49
2021/03/27 02:32:53;;;;;;;8.02;4.45;;;33.00;81.20;;;;;;4872786;29;20215;-51
2021/03/27 02:35:38;;;;;;;7.15;4.03;;;32.90;81.50;;;;;;4912979;29;20253;-48
2021/03/27 02:38:21;;;;;;;5.32;3.63;;;32.90;82.10;;;;;;4888358;29;20208;-49
2021/03/27 02:40:55;;;;;;;6.70;3.80;;;32.90;82.60;;;;;;4901150;29;20211;-48
2021/03/27 02:43:29;;;;;;;5.20;3.88;;;32.90;82.80;;;;;;4928745;28;20228;-49
2021/03/27 02:46:04;;;;;;;6.88;4.40;;;32.90;82.40;;;;;;4898733;29;20223;-50
2021/03/27 02:48:43;;;;;;;5.90;4.22;;;32.90;82.40;;;;;;4906038;29;20880;-51
2021/03/27 02:51:18;;;;;;;7.20;4.32;;;33.00;82.50;;;;;;4869379;29;20228;-50
2021/03/27 02:53:52;;;;;;;6.22;4.20;;;33.00;82.30;;;;;;4916004;29;20237;-51
2021/03/27 02:56:28;;;;;;;7.10;4.03;;;33.00;82.50;;;;;;4899508;29;20210;-53
2021/03/27 02:59:12;;;;;;;6.43;3.90;;;33.10;82.30;;;;;;4862837;29;20682;-51
2021/03/27 03:01:47;;;;;;;4.43;3.28;;;33.10;82.40;;;;;;4889733;29;20330;-50
2021/03/27 03:04:26;;;;;;;5.30;3.40;;;33.20;82.30;;;;;;4891423;29;20215;-52
2021/03/27 03:06:58;;;;;;;5.15;3.42;;;33.20;82.10;;;;;;4872619;29;20251;-50
2021/03/27 03:09:33;;;;;;;6.68;3.92;;;33.30;82.30;;;;;;4851366;29;20217;-50
2021/03/27 03:12:11;;;;;;;5.20;3.60;;;33.40;82.50;;;;;;4817363;29;20584;-51
2021/03/27 03:14:44;;;;;;;4.50;3.20;;;33.40;82.10;;;;;;4795284;29;20279;-50
2021/03/27 03:17:21;;;;;;;8.07;4.15;;;33.40;82.20;;;;;;4827465;29;20226;-50
2021/03/27 03:19:54;;;;;;;6.82;3.58;;;33.60;80.40;;;;;;4841263;29;20216;-50
2021/03/27 03:22:30;;;;;;;6.25;3.75;;;33.60;79.40;;;;;;4828608;29;20220;-52
2021/03/27 03:25:00;;;;;;;5.40;3.25;;;33.70;78.40;;;;;;4809969;29;20246;-49
2021/03/27 03:27:37;;;;;;;6.90;4.15;;;33.70;77.70;;;;;;4834859;29;20228;-51
2021/03/27 03:30:29;;;;;;;7.18;4.28;;;33.80;76.70;;;;;;4861641;29;20224;-49
2021/03/27 03:33:30;;;;;;;6.00;3.85;;;33.80;76.10;;;;;;4908739;29;20238;-49
2021/03/27 03:36:03;;;;;;;5.80;3.58;;;33.80;76.80;;;;;;4908870;29;20256;-50
2021/03/27 03:38:41;;;;;;;4.15;3.08;;;33.90;77.60;;;;;;4927422;29;20214;-49
2021/03/27 03:41:16;;;;;;;6.28;3.85;;;33.90;77.90;;;;;;4922178;29;20220;-49
2021/03/27 03:43:51;;;;;;;6.82;4.28;;;33.90;77.20;;;;;;4944956;28;20224;-50
2021/03/27 03:46:33;;;;;;;8.82;4.50;;;34.00;76.90;;;;;;5002801;28;20216;-49
2021/03/27 03:49:24;;;;;;;4.88;3.90;;;34.10;76.50;;;;;;4949590;28;20599;-52
2021/03/27 03:52:07;;;;;;;4.82;3.78;;;34.10;76.60;;;;;;4959120;28;20759;-50
2021/03/27 03:54:41;;;;;;;6.63;4.55;;;34.20;76.30;;;;;;4945813;29;20209;-50
2021/03/27 03:57:14;;;;;;;7.60;5.20;;;34.20;76.40;;;;;;4946195;29;20217;-50
2021/03/27 03:59:47;;;;;;;5.97;4.55;;;34.20;74.60;;;;;;4907569;29;20257;-49
2021/03/27 04:02:23;;;;;;;6.05;4.43;;;34.30;75.40;;;;;;4907646;29;20237;-51
2021/03/27 04:04:55;;;;;;;7.32;4.60;;;34.30;74.20;;;;;;4872169;29;20227;-51
2021/03/27 04:07:29;;;;;;;7.57;4.68;;;34.30;73.60;;;;;;4884956;29;20211;-51
2021/03/27 04:10:01;;;;;;;7.65;4.88;;;34.30;73.70;;;;;;4889798;29;20267;-50
2021/03/27 04:12:34;;;;;;;13.43;5.80;;;34.40;74.10;;;;;;4914117;29;20662;-50
2021/03/27 04:15:25;;;;;;;5.55;4.78;;;34.50;73.00;;;;;;4889807;29;20215;-51
2021/03/27 04:18:06;;;;;;;7.15;5.30;;;34.50;72.40;;;;;;4888681;29;20216;-49
2021/03/27 04:20:46;;;;;;;10.50;6.18;;;34.60;71.80;;;;;;4873543;29;20551;-52
2021/03/27 04:23:26;;;;;;;7.93;5.20;;;34.60;71.30;;;;;;4873598;29;20776;-52
2021/03/27 04:26:24;;;;;;;6.97;5.55;;;34.60;71.70;;;;;;4848469;29;20216;-53
2021/03/27 04:29:12;;;;;;;7.40;5.15;;;34.70;71.40;;;;;;4863450;29;20220;-52
2021/03/27 04:31:45;;;;;;;6.53;5.50;;;34.70;71.40;;;;;;4833771;29;20213;-51
2021/03/27 04:34:19;;;;;;;7.20;5.72;;;34.70;72.00;;;;;;4820327;29;20210;-49
2021/03/27 04:37:02;;;;;;;7.43;6.03;;;34.80;71.50;;;;;;4849797;29;20217;-50
2021/03/27 04:39:35;;;;;;;9.05;6.18;;;34.80;71.10;;;;;;4886948;29;20214;-52
2021/03/27 04:42:10;;;;;;;8.75;6.78;;;34.80;70.00;;;;;;4910391;29;20653;-50
2021/03/27 04:44:46;;;;;;;9.50;7.18;;;34.80;70.10;;;;;;4940550;29;20237;-49
2021/03/27 04:47:19;;;;;;;9.48;5.80;;;34.90;70.80;;;;;;4879569;29;20212;-50
2021/03/27 04:49:54;;;;;;;6.78;5.15;;;34.90;70.90;;;;;;4883067;29;20563;-49
2021/03/27 04:52:34;;;;;;;8.40;4.88;;;35.00;71.90;;;;;;4912498;29;20622;-50
2021/03/27 04:55:24;;;;;;;7.18;5.22;;;35.10;71.70;;;;;;4912837;29;20651;-49
2021/03/27 04:58:24;;;;;;;6.43;5.05;;;35.10;70.90;;;;;;4916323;29;20207;-49
2021/03/27 05:01:00;;;;;;;6.82;4.40;;;35.20;71.40;;;;;;4894328;29;20239;-50
2021/03/27 05:03:31;;;;;;;7.78;5.00;;;35.30;71.60;;;;;;4945898;28;20236;-50
2021/03/27 05:06:06;;;;;;;9.45;5.78;;;35.20;71.40;;;;;;4958488;28;20209;-50
2021/03/27 05:09:08;;;;;;;10.23;5.72;;;35.20;70.80;;;;;;4909984;29;20250;-52
2021/03/27 05:11:46;;;;;;;10.88;6.70;;;35.20;70.30;;;;;;4901474;29;20240;-49
2021/03/27 05:14:42;;;;;;;9.90;5.80;;;35.20;68.50;;;;;;4843183;29;20209;-50
2021/03/27 05:17:17;;;;;;;6.43;5.13;;;35.20;70.10;;;;;;4854725;29;20689;-52
2021/03/27 05:19:52;;;;;;;7.75;4.90;;;35.10;70.20;;;;;;4927504;28;20209;-52
2021/03/27 05:22:31;;;;;;;7.15;5.93;;;35.20;71.00;;;;;;4940640;28;20201;-50
2021/03/27 05:25:16;;;;;;;7.45;6.40;;;35.20;70.60;;;;;;4943497;28;20212;-49
2021/03/27 05:27:54;;;;;;;7.55;5.55;;;35.20;68.90;;;;;;4883085;29;20219;-51
2021/03/27 05:30:26;;;;;;;8.30;5.80;;;35.30;69.90;;;;;;4886219;29;20264;-53
2021/03/27 05:33:21;;;;;;;10.50;7.35;;;35.30;70.30;;;;;;4886836;29;20286;-50
2021/03/27 05:35:56;;;;;;;9.38;8.27;;;35.40;69.10;;;;;;4889011;29;20263;-49
2021/03/27 05:38:36;;;;;;;8.80;7.90;;;35.60;67.60;;;;;;4871970;29;20608;-51
2021/03/27 05:41:31;;;;;;;10.32;7.22;;;35.60;67.40;;;;;;4916735;29;20201;-53
2021/03/27 05:44:48;;;;;;;8.85;7.70;;;35.70;67.80;;;;;;4915216;29;20627;-51
2021/03/27 05:48:01;;;;;;;8.13;7.25;;;35.90;67.40;;;;;;4966411;28;20264;-50
2021/03/27 05:51:14;;;;;;;8.75;7.85;;;36.10;67.10;;;;;;4966267;28;20721;-52
2021/03/27 05:54:05;;;;;;;8.35;7.60;;;36.20;65.20;;;;;;5019089;28;20202;-49
2021/03/27 05:57:14;;;;;;;9.40;8.43;;;36.40;63.50;;;;;;4960012;28;20205;-49
2021/03/27 06:00:13;;;;;;;7.50;6.50;;;36.50;65.20;;;;;;4927879;29;20220;-50
2021/03/27 06:03:07;;;;;;;9.18;7.55;;;36.60;65.60;;;;;;4911697;29;20301;-50
2021/03/27 06:05:46;;;;;;;7.05;6.35;;;36.60;64.60;;;;;;4889875;29;20207;-51
2021/03/27 06:08:29;;;;;;;6.72;5.65;;;36.70;64.90;;;;;;4853559;29;20385;-52
2021/03/27 06:11:16;;;;;;;5.80;5.20;;;36.80;65.10;;;;;;4901997;29;20266;-50
2021/03/27 06:14:01;;;;;;;5.45;4.93;;;36.80;65.10;;;;;;4901254;29;20198;-49
2021/03/27 06:17:12;;;;;;;6.68;5.53;;;36.90;65.40;;;;;;4889171;29;20595;-51
2021/03/27 06:20:26;;;;;;;6.50;5.80;;;37.00;65.50;;;;;;4834441;29;20236;-53
2021/03/27 06:23:30;;;;;;;6.45;5.78;;;37.10;65.20;;;;;;4855372;29;20337;-51
2021/03/27 06:26:33;;;;;;;7.07;5.75;;;37.20;64.70;;;;;;4906946;29;20213;-53
2021/03/27 06:29:41;;;;;;;6.82;6.03;;;37.20;63.90;;;;;;4912243;29;20291;-51
2021/03/27 06:32:44;;;;;;;7.35;6.18;;;37.40;63.40;;;;;;4955078;28;20216;-50
2021/03/27 06:35:24;;;;;;;7.82;6.85;;;37.40;63.40;;;;;;4968236;28;20623;-50
2021/03/27 06:38:14;;;;;;;7.18;6.57;;;37.50;60.70;;;;;;4927427;29;20233;-52
2021/03/27 06:41:07;;;;;;;6.65;6.00;;;37.50;60.40;;;;;;4860938;29;20212;-51
2021/03/27 06:44:07;;;;;;;6.70;5.68;;;37.60;60.20;;;;;;4900440;29;20376;-51
2021/03/27 06:47:01;;;;;;;5.47;4.95;;;37.60;61.40;;;;;;4892538;29;20293;-49
2021/03/27 06:50:15;;;;;;;5.43;4.88;;;37.70;61.90;;;;;;4868313;29;20268;-51
2021/03/27 06:53:16;;;;;;;6.85;4.78;;;37.70;62.70;;;;;;4810402;29;20662;-51
2021/03/27 06:55:54;;;;;;;7.25;4.57;;;37.80;62.70;;;;;;4838105;29;20213;-51
2021/03/27 06:58:53;;;;;;;7.18;5.15;;;37.90;62.20;;;;;;4850257;29;20323;-51
2021/03/27 07:02:04;;;;;;;6.38;5.25;;;38.00;62.50;;;;;;4833127;29;20245;-51
2021/03/27 07:05:07;;;;;;;6.35;4.97;;;38.10;62.20;;;;;;4844237;29;20934;-50
2021/03/27 07:08:00;;;;;;;6.88;4.97;;;38.20;61.90;;;;;;4833185;29;20213;-50
2021/03/27 07:10:50;;;;;;;6.30;5.13;;;38.30;61.30;;;;;;4844098;29;20558;-51
2021/03/27 07:13:55;;;;;;;7.05;5.25;;;38.30;60.30;;;;;;4861012;29;20212;-49
2021/03/27 07:16:35;;;;;;;9.18;6.38;;;38.40;59.50;;;;;;4894244;29;20218;-54
2021/03/27 07:19:39;;;;;;;538.70;405.40;;;38.30;59.10;;;;;;4870618;29;20671;-53
2021/03/27 07:22:32;;;;;;;270.10;235.00;;;38.40;60.00;;;;;;4870383;29;20669;-52
2021/03/27 07:25:20;;;;;;;21.83;17.98;;;38.40;60.00;;;;;;4844744;29;20695;-50
2021/03/27 07:28:15;;;;;;;8.75;7.20;;;38.40;59.20;;;;;;4876840;29;20223;-55
2021/03/27 07:31:24;;;;;;;46.47;42.38;;;38.40;58.50;;;;;;4886994;29;20230;-54
2021/03/27 07:34:04;;;;;;;19.08;17.30;;;38.30;59.60;;;;;;4937003;29;20705;-53
2021/03/27 07:37:08;;;;;;;15.23;13.73;;;38.40;59.80;;;;;;4889005;29;20311;-50
2021/03/27 07:40:05;;;;;;;9.25;7.22;;;38.40;59.70;;;;;;4876658;29;20226;-49
2021/03/27 07:43:05;;;;;;;7.03;6.38;;;38.40;59.30;;;;;;4882137;29;20219;-50
2021/03/27 07:45:45;;;;;;;6.28;5.57;;;38.40;59.30;;;;;;4893076;29;20243;-51
2021/03/27 07:48:48;;;;;;;6.10;5.50;;;38.50;58.90;;;;;;4856908;29;20212;-52
2021/03/27 07:51:31;;;;;;;7.43;6.10;;;38.50;58.80;;;;;;4891559;29;20238;-49
2021/03/27 07:54:09;;;;;;;6.10;5.18;;;38.60;58.70;;;;;;4874596;29;20244;-52
2021/03/27 07:56:45;;;;;;;7.63;5.38;;;38.60;58.70;;;;;;4836719;29;20221;-54
2021/03/27 07:59:40;;;;;;;6.40;5.13;;;38.60;58.50;;;;;;4796278;29;21125;-49
2021/03/27 08:02:37;;;;;;;10.63;5.13;;;38.60;58.60;;;;;;4851511;29;20297;-49
2021/03/27 08:05:36;;;;;;;7.55;4.60;;;38.50;58.70;;;;;;4906758;29;20230;-51
2021/03/27 08:08:31;;;;;;;7.20;5.18;;;38.50;59.20;;;;;;4869463;29;20291;-49
2021/03/27 08:11:21;;;;;;;5.80;4.68;;;38.50;59.60;;;;;;4871030;29;20204;-49
2021/03/27 08:14:31;;;;;;;6.03;4.70;;;38.50;59.10;;;;;;4878564;29;20614;-50
2021/03/27 08:17:39;;;;;;;5.28;4.60;;;38.40;59.20;;;;;;4849714;29;20307;-53
2021/03/27 08:20:22;;;;;;;6.93;5.32;;;38.40;59.20;;;;;;4919514;28;20905;-51
2021/03/27 08:23:20;;;;;;;5.72;5.00;;;38.30;58.20;;;;;;4916499;28;20249;-53
2021/03/27 08:26:07;;;;;;;7.72;5.05;;;38.20;58.80;;;;;;4952253;28;20300;-50
2021/03/27 08:29:41;;;;;;;6.65;5.07;;;38.10;58.70;;;;;;4922861;28;20209;-51
2021/03/27 08:32:34;;;;;;;6.78;5.15;;;38.00;59.30;;;;;;4946468;28;20271;-50
2021/03/27 08:35:38;;;;;;;7.85;5.43;;;37.90;58.90;;;;;;4910466;29;20210;-50
2021/03/27 08:38:40;;;;;;;6.78;4.85;;;37.80;59.20;;;;;;4904562;29;20299;-51
2021/03/27 08:41:37;;;;;;;6.22;5.22;;;37.70;59.30;;;;;;4909668;29;20241;-51
2021/03/27 08:44:45;;;;;;;8.55;5.15;;;37.50;59.40;;;;;;4894024;29;20235;-51
2021/03/27 08:47:27;;;;;;;6.35;4.88;;;37.30;60.00;;;;;;4900943;29;20214;-49
2021/03/27 08:50:24;;;;;;;8.75;5.50;;;37.20;60.20;;;;;;4896191;29;20401;-50
2021/03/27 08:53:22;;;;;;;7.28;5.05;;;37.20;60.90;;;;;;4894158;29;20222;-50
2021/03/27 08:56:23;;;;;;;6.82;5.10;;;37.20;62.20;;;;;;4847924;29;20208;-51
2021/03/27 08:59:29;;;;;;;6.38;5.00;;;37.20;61.60;;;;;;4851386;29;20258;-49
2021/03/27 09:02:23;;;;;;;7.10;5.25;;;37.20;61.70;;;;;;4833984;29;20684;-52
2021/03/27 09:04:59;;;;;;;8.25;5.60;;;37.20;61.90;;;;;;4875231;29;20854;-51
2021/03/27 09:07:59;;;;;;;6.68;5.28;;;37.20;61.10;;;;;;4884409;29;20211;-49
2021/03/27 09:10:54;;;;;;;8.73;5.05;;;37.20;60.70;;;;;;4889915;29;20624;-52
2021/03/27 09:13:45;;;;;;;6.72;5.00;;;37.20;60.70;;;;;;4837001;29;20710;-52
2021/03/27 09:16:48;;;;;;;5.80;5.18;;;37.30;61.20;;;;;;4871015;29;20209;-53
2021/03/27 09:20:05;;;;;;;6.28;4.80;;;37.30;60.80;;;;;;4869975;29;20687;-51
2021/03/27 09:22:51;;;;;;;6.38;5.05;;;37.40;60.90;;;;;;4858145;29;20225;-50
2021/03/27 09:25:30;;;;;;;6.85;5.25;;;37.50;61.50;;;;;;4909871;29;20261;-50
2021/03/27 09:28:22;;;;;;;5.18;4.45;;;37.50;60.60;;;;;;4834950;29;20209;-51
2021/03/27 09:31:08;;;;;;;6.88;5.13;;;37.60;61.30;;;;;;4798923;29;20272;-51
2021/03/27 09:33:40;;;;;;;6.03;4.72;;;37.70;61.20;;;;;;4746995;30;20221;-52
2021/03/27 09:36:17;;;;;;;5.63;4.93;;;37.70;61.30;;;;;;4798039;29;20226;-54
2021/03/27 09:38:53;;;;;;;7.00;5.45;;;37.80;61.00;;;;;;4815562;29;20226;-50
2021/03/27 09:41:56;;;;;;;7.30;6.50;;;37.90;60.40;;;;;;4762262;30;20231;-50
2021/03/27 09:45:09;;;;;;;6.55;5.72;;;37.90;59.20;;;;;;4762777;30;20243;-51
2021/03/27 09:48:11;;;;;;;7.22;5.25;;;37.90;59.70;;;;;;4744517;30;20495;-53
2021/03/27 09:50:49;;;;;;;6.93;6.15;;;38.00;59.60;;;;;;4742910;30;20829;-52
2021/03/27 09:53:34;;;;;;;6.85;5.53;;;38.00;59.60;;;;;;4755218;30;20220;-53
2021/03/27 09:56:06;;;;;;;6.60;5.63;;;38.00;59.60;;;;;;4788199;29;20229;-49
2021/03/27 09:59:08;;;;;;;7.53;5.55;;;38.00;59.30;;;;;;4806085;29;20214;-50
2021/03/27 10:01:40;;;;;;;6.65;5.45;;;38.00;59.30;;;;;;4813269;29;20253;-51
2021/03/27 10:04:48;;;;;;;8.55;5.40;;;37.90;59.30;;;;;;4814375;29;20328;-53
2021/03/27 10:07:43;;;;;;;6.35;5.05;;;37.80;59.50;;;;;;4887693;29;20215;-51
2021/03/27 10:10:37;;;;;;;5.85;4.47;;;37.80;59.60;;;;;;4901228;29;20380;-51
2021/03/27 10:13:26;;;;;;;6.78;4.95;;;37.70;59.70;;;;;;4908918;29;20289;-51
2021/03/27 10:15:57;;;;;;;6.68;5.00;;;37.60;59.80;;;;;;4870535;29;20224;-51
2021/03/27 10:18:31;;;;;;;6.50;5.55;;;37.60;59.90;;;;;;4834349;29;20228;-52
2021/03/27 10:21:06;;;;;;;7.53;5.85;;;37.50;59.80;;;;;;4816604;29;20221;-51
2021/03/27 10:23:38;;;;;;;7.10;5.57;;;37.30;59.90;;;;;;4849978;29;20681;-51
2021/03/27 10:26:24;;;;;;;6.65;5.15;;;37.20;59.90;;;;;;4917426;28;20217;-52
2021/03/27 10:28:56;;;;;;;7.38;5.70;;;37.20;60.40;;;;;;4965377;28;20209;-50
2021/03/27 10:31:29;;;;;;;6.68;6.05;;;37.20;60.60;;;;;;4966519;28;20843;-50
2021/03/27 10:34:20;;;;;;;7.45;6.00;;;37.20;60.70;;;;;;4908508;29;21363;-51
2021/03/27 10:36:53;;;;;;;7.00;6.28;;;37.30;60.70;;;;;;4871218;29;20214;-51
2021/03/27 10:39:43;;;;;;;7.57;5.95;;;37.40;60.70;;;;;;4808191;29;20213;-52
2021/03/27 10:42:52;;;;;;;7.40;6.00;;;37.50;60.60;;;;;;4803409;29;20280;-50
2021/03/27 10:45:43;;;;;;;7.55;5.82;;;37.80;60.70;;;;;;4813059;29;20837;-51
2021/03/27 10:48:32;;;;;;;8.18;5.28;;;37.90;59.90;;;;;;4850094;29;20213;-51
2021/03/27 10:51:10;;;;;;;7.07;5.97;;;38.10;59.90;;;;;;4881032;29;20594;-51
2021/03/27 10:53:55;;;;;;;8.10;6.18;;;38.30;59.40;;;;;;4918464;28;20261;-49
2021/03/27 10:57:01;;;;;;;6.63;5.53;;;38.40;59.20;;;;;;4922800;29;20293;-49
2021/03/27 10:59:37;;;;;;;6.25;5.22;;;38.50;59.10;;;;;;4892364;29;20209;-50
2021/03/27 11:02:36;;;;;;;6.70;4.80;;;38.60;58.40;;;;;;4878113;29;20339;-50
2021/03/27 11:05:54;;;;;;;8.95;5.70;;;38.70;58.60;;;;;;4867635;29;20738;-52
2021/03/27 11:08:55;;;;;;;6.20;4.95;;;38.70;58.20;;;;;;4866768;29;20239;-51
2021/03/27 11:11:54;;;;;;;7.80;5.25;;;38.60;58.50;;;;;;4862356;29;20700;-49
2021/03/27 11:14:46;;;;;;;6.90;4.97;;;38.50;58.00;;;;;;4854191;29;20222;-51
2021/03/27 11:17:40;;;;;;;5.55;4.60;;;38.30;58.00;;;;;;4825087;29;21501;-50
2021/03/27 11:20:50;;;;;;;7.63;5.28;;;38.10;58.10;;;;;;4751092;29;20663;-49
2021/03/27 11:23:46;;;;;;;7.05;4.85;;;37.80;58.50;;;;;;4749045;30;20250;-53
2021/03/27 11:26:39;;;;;;;7.03;5.35;;;37.60;58.60;;;;;;4782278;29;20214;-49
2021/03/27 11:29:27;;;;;;;5.88;5.22;;;37.40;59.00;;;;;;4821773;29;20209;-50
2021/03/27 11:32:12;;;;;;;6.88;4.85;;;37.20;59.30;;;;;;4844590;29;20273;-53
2021/03/27 11:34:46;;;;;;;6.35;5.30;;;36.90;59.90;;;;;;4797599;29;20291;-49
2021/03/27 11:37:51;;;;;;;6.70;5.10;;;36.70;60.40;;;;;;4852095;29;20666;-52
2021/03/27 11:40:31;;;;;;;5.53;4.70;;;36.50;61.10;;;;;;4852050;29;20212;-51
2021/03/27 11:43:24;;;;;;;7.38;4.85;;;36.30;61.80;;;;;;4887307;29;20215;-49
2021/03/27 11:45:58;;;;;;;8.15;5.55;;;36.20;62.10;;;;;;4889321;29;20226;-52
2021/03/27 11:48:31;;;;;;;7.93;5.25;;;36.00;62.60;;;;;;4928707;29;20218;-51
2021/03/27 11:51:04;;;;;;;8.27;5.13;;;35.90;63.20;;;;;;4954385;28;20230;-49
2021/03/27 11:53:42;;;;;;;6.50;5.20;;;35.70;63.70;;;;;;5015939;28;20238;-49
2021/03/27 11:56:22;;;;;;;5.60;4.90;;;35.60;64.30;;;;;;4934669;29;20231;-50
2021/03/27 12:02:13;;;;;;;4.93;4.20;;;35.30;65.30;;;;;;4928637;29;20321;-51
2021/03/27 12:04:55;;;;;;;6.68;4.50;;;35.20;65.70;;;;;;4924668;29;20278;-53
2021/03/27 12:07:27;;;;;;;6.30;3.95;;;35.10;66.30;;;;;;4930561;29;20317;-52
2021/03/27 12:10:00;;;;;;;7.20;5.15;;;35.00;66.40;;;;;;4946351;28;20282;-49
2021/03/27 12:12:39;;;;;;;7.63;5.00;;;34.90;66.90;;;;;;4976158;28;20208;-53
2021/03/27 12:15:27;;;;;;;5.32;4.32;;;34.80;67.50;;;;;;4980477;28;20204;-52
2021/03/27 12:18:04;;;;;;;8.27;5.00;;;34.70;67.80;;;;;;4928313;29;20750;-51
2021/03/27 12:20:37;;;;;;;7.20;5.00;;;34.70;68.00;;;;;;4929297;29;20205;-50
2021/03/27 12:23:20;;;;;;;7.80;4.85;;;34.60;68.20;;;;;;4936208;28;20650;-50
2021/03/27 12:26:03;;;;;;;8.00;5.30;;;34.50;68.70;;;;;;4947976;28;20814;-53
2021/03/27 12:28:43;;;;;;;7.30;5.30;;;34.50;69.00;;;;;;4962420;28;20669;-49
2021/03/27 12:31:19;;;;;;;8.40;5.63;;;34.40;69.20;;;;;;4964015;28;20323;-53
2021/03/27 12:34:04;;;;;;;8.05;5.88;;;34.40;69.40;;;;;;4985294;28;20239;-51
2021/03/27 12:36:40;;;;;;;7.93;5.95;;;34.30;69.80;;;;;;4985907;28;20212;-51
2021/03/27 12:39:24;;;;;;;11.13;6.72;;;34.30;69.70;;;;;;4966361;28;20212;-49
2021/03/27 12:42:06;;;;;;;7.93;6.15;;;34.30;70.40;;;;;;4940476;28;20230;-52
2021/03/27 12:44:38;;;;;;;8.02;6.13;;;34.20;70.20;;;;;;4964488;28;20247;-49
2021/03/27 12:47:32;;;;;;;10.85;6.13;;;34.10;70.20;;;;;;4967656;28;20265;-50
2021/03/27 12:50:27;;;;;;;7.57;5.65;;;34.10;70.50;;;;;;4967960;28;20227;-52
2021/03/27 12:53:23;;;;;;;7.57;5.45;;;34.10;70.80;;;;;;4946179;28;20236;-51
2021/03/27 12:56:04;;;;;;;7.07;5.38;;;34.00;71.00;;;;;;4983751;28;20299;-50
2021/03/27 12:58:40;;;;;;;7.35;5.10;;;33.90;71.20;;;;;;4997416;28;20211;-52
2021/03/27 13:01:20;;;;;;;8.90;5.15;;;33.90;71.30;;;;;;5006557;28;20286;-51
2021/03/27 13:04:18;;;;;;;6.93;4.50;;;33.80;71.60;;;;;;5006598;28;20201;-52
2021/03/27 13:07:00;;;;;;;7.25;5.10;;;33.80;71.90;;;;;;5032193;28;20198;-51
2021/03/27 13:10:15;;;;;;;5.97;4.65;;;33.80;72.00;;;;;;5014256;28;20795;-53
2021/03/27 13:12:50;;;;;;;6.20;4.82;;;33.70;72.10;;;;;;5043774;28;20627;-53
2021/03/27 13:15:33;;;;;;;6.10;4.43;;;33.70;72.20;;;;;;5044295;28;20483;-53
2021/03/27 13:18:30;;;;;;;8.27;4.72;;;33.60;72.70;;;;;;5042029;28;20218;-49
2021/03/27 13:21:28;;;;;;;6.43;5.10;;;33.60;72.90;;;;;;4986703;28;20211;-53
2021/03/27 13:24:11;;;;;;;8.43;5.03;;;33.50;73.10;;;;;;4945393;29;20296;-52
2021/03/27 13:26:42;;;;;;;7.63;4.72;;;33.50;73.20;;;;;;4946430;29;20212;-52
2021/03/27 13:29:35;;;;;;;7.18;5.07;;;33.40;73.20;;;;;;4947821;29;20244;-50
2021/03/27 13:32:16;;;;;;;5.53;4.53;;;33.40;73.80;;;;;;4948167;29;20214;-51
2021/03/27 13:35:01;;;;;;;6.00;4.53;;;33.40;74.10;;;;;;4960496;28;20577;-49
2021/03/27 13:37:34;;;;;;;5.97;5.00;;;33.30;74.00;;;;;;4966900;28;20208;-52
2021/03/27 13:40:05;;;;;;;6.13;4.75;;;33.30;74.30;;;;;;4946982;28;20213;-50
2021/03/27 13:42:43;;;;;;;9.98;5.60;;;33.20;74.30;;;;;;4947826;29;20249;-53
2021/03/27 13:45:29;;;;;;;8.65;5.72;;;33.20;74.80;;;;;;4960011;28;20311;-49
2021/03/27 13:48:12;;;;;;;7.13;5.13;;;33.20;75.10;;;;;;5001497;28;20215;-53
2021/03/27 13:50:53;;;;;;;6.57;5.13;;;33.20;75.20;;;;;;5022185;28;20567;-49
2021/03/27 13:53:40;;;;;;;5.88;4.97;;;33.20;75.20;;;;;;4967909;28;20350;-49
2021/03/27 13:56:40;;;;;;;7.25;5.22;;;33.10;75.50;;;;;;4970398;28;20215;-50
2021/03/27 13:59:37;;;;;;;6.57;4.95;;;33.10;75.70;;;;;;4924529;28;20747;-52
2021/03/27 14:02:41;;;;;;;6.30;5.00;;;33.10;75.70;;;;;;4969671;28;20748;-50
2021/03/27 14:05:39;;;;;;;7.20;5.15;;;33.00;75.50;;;;;;4989841;28;20308;-50
2021/03/27 14:08:31;;;;;;;8.00;5.60;;;33.00;75.80;;;;;;4933060;28;20221;-50
2021/03/27 14:11:02;;;;;;;7.45;5.22;;;33.00;76.10;;;;;;4985362;28;20682;-51
2021/03/27 14:13:36;;;;;;;5.80;4.53;;;33.00;75.90;;;;;;4965115;28;20208;-49
2021/03/27 14:16:13;;;;;;;7.97;4.85;;;32.90;76.10;;;;;;4965098;28;20228;-52
2021/03/27 14:18:53;;;;;;;6.05;4.63;;;32.90;76.50;;;;;;4966456;28;20225;-50
2021/03/27 14:21:38;;;;;;;7.50;5.40;;;32.90;76.70;;;;;;4969595;28;20291;-52